createdAt,value
2022-09-05T00:00:38.211Z,83.26
2022-09-05T00:04:14.971Z,83.84
2022-09-05T00:07:58.463Z,83.10
2022-09-05T00:11:41.126Z,83.24
2022-09-05T00:15:16.997Z,83.51
2022-09-05T00:24:21.446Z,82.92
2022-09-05T00:24:29.815Z,82.60
2022-09-05T00:26:33.788Z,83.39
2022-09-05T00:31:07.720Z,83.09
2022-09-05T00:33:43.176Z,82.60
2022-09-05T00:36:55.009Z,83.00
2022-09-05T00:40:29.579Z,83.30
2022-09-05T00:43:43.108Z,83.18
2022-09-05T00:47:10.877Z,83.21
2022-09-05T00:50:30.792Z,83.16
2022-09-05T00:53:52.382Z,83.22
2022-09-05T00:57:22.520Z,82.80
2022-09-05T01:00:50.351Z,83.20
2022-09-05T01:04:20.899Z,83.11
2022-09-05T01:07:59.565Z,84.02
2022-09-05T01:11:20.877Z,83.71
2022-09-05T01:15:00.714Z,83.97
2022-09-05T01:18:32.781Z,83.85
2022-09-05T01:22:20.382Z,83.53
2022-09-05T01:25:55.039Z,83.55
2022-09-05T01:29:16.218Z,84.23
2022-09-05T01:32:41.410Z,83.71
2022-09-05T01:36:15.001Z,83.66
2022-09-05T01:40:11.130Z,83.34
2022-09-05T01:43:27.887Z,84.30
2022-09-05T01:46:50.914Z,83.91
2022-09-05T01:50:18.213Z,83.79
2022-09-05T01:53:43.580Z,83.62
2022-09-05T01:57:08.952Z,84.24
2022-09-05T02:00:23.033Z,84.06
2022-09-05T02:03:42.186Z,84.21
2022-09-05T02:07:22.500Z,84.26
2022-09-05T02:10:54.661Z,84.22
2022-09-05T02:14:24.340Z,83.88
2022-09-05T02:17:53.121Z,83.95
2022-09-05T02:21:10.462Z,83.75
2022-09-05T02:24:26.054Z,83.94
2022-09-05T02:28:04.702Z,84.25
2022-09-05T02:31:25.385Z,83.80
2022-09-05T02:34:49.525Z,84.37
2022-09-05T02:39:07.522Z,84.38
2022-09-05T02:45:14.815Z,84.39
2022-09-05T02:45:34.755Z,83.96
2022-09-05T02:49:01.957Z,84.35
2022-09-05T02:57:33.869Z,84.73
2022-09-05T02:57:40.795Z,84.28
2022-09-05T03:00:03.934Z,84.15
2022-09-05T03:03:27.404Z,84.05
2022-09-05T03:06:49.978Z,84.23
2022-09-05T03:10:16.513Z,84.36
2022-09-05T03:14:22.638Z,84.37
2022-09-05T03:18:21.613Z,83.81
2022-09-05T03:22:13.303Z,84.28
2022-09-05T03:26:22.213Z,84.39
2022-09-05T03:30:08.428Z,84.72
2022-09-05T03:33:54.500Z,84.84
2022-09-05T03:37:50.170Z,85.93
2022-09-05T03:41:20.825Z,85.39
2022-09-05T03:45:01.768Z,84.87
2022-09-05T03:48:44.956Z,85.67
2022-09-05T03:57:11.479Z,84.96
2022-09-05T03:57:22.451Z,85.43
2022-09-05T04:00:11.377Z,85.41
2022-09-05T04:08:17.305Z,85.40
2022-09-05T04:08:18.449Z,84.95
2022-09-05T04:10:46.062Z,85.15
2022-09-05T04:14:03.916Z,85.12
2022-09-05T04:17:28.741Z,84.79
2022-09-05T04:20:45.421Z,84.56
2022-09-05T04:24:11.676Z,84.21
2022-09-05T04:27:38.449Z,84.15
2022-09-05T04:30:56.297Z,84.47
2022-09-05T04:34:29.225Z,84.17
2022-09-05T04:37:49.999Z,84.45
2022-09-05T04:41:04.844Z,84.37
2022-09-05T04:44:18.201Z,84.46
2022-09-05T04:47:36.678Z,84.88
2022-09-05T04:51:13.068Z,85.04
2022-09-05T04:54:36.190Z,84.84
2022-09-05T04:57:52.360Z,85.09
2022-09-05T05:06:00.846Z,84.43
2022-09-05T05:06:10.495Z,83.94
2022-09-05T05:08:31.703Z,83.83
2022-09-05T05:17:59.475Z,84.75
2022-09-05T05:18:14.371Z,84.53
2022-09-05T05:19:17.280Z,84.22
2022-09-05T05:22:29.731Z,84.46
2022-09-05T05:25:51.786Z,83.94
2022-09-05T05:29:09.301Z,83.62
2022-09-05T05:32:44.835Z,84.35
2022-09-05T05:35:58.779Z,84.40
2022-09-05T05:39:13.665Z,83.45
2022-09-05T05:42:25.326Z,83.93
2022-09-05T05:45:37.644Z,83.63
2022-09-05T05:48:57.131Z,83.61
2022-09-05T05:52:42.261Z,82.94
2022-09-05T05:56:41.983Z,81.84
2022-09-05T06:00:08.614Z,81.36
2022-09-05T06:04:05.453Z,81.75
2022-09-05T06:07:29.258Z,80.45
2022-09-05T06:15:06.397Z,78.61
2022-09-05T06:15:41.695Z,77.96
2022-09-05T06:20:01.780Z,76.65
2022-09-05T06:23:45.338Z,69.64
2022-09-05T06:27:27.491Z,66.36
2022-09-05T06:30:48.817Z,63.85
2022-09-05T06:34:33.090Z,61.52
2022-09-05T06:38:01.677Z,61.74
2022-09-05T06:41:29.005Z,60.11
2022-09-05T06:44:57.186Z,57.64
2022-09-05T06:48:45.028Z,56.57
2022-09-05T06:52:32.125Z,54.49
2022-09-05T06:56:06.229Z,55.44
2022-09-05T07:00:03.799Z,57.27
2022-09-05T07:03:30.553Z,57.41
2022-09-05T07:07:06.463Z,57.35
2022-09-05T07:10:38.327Z,55.48
2022-09-05T07:14:03.424Z,50.87
2022-09-05T07:17:20.997Z,48.06
2022-09-05T07:20:37.952Z,45.13
2022-09-05T07:24:11.158Z,43.24
2022-09-05T07:27:42.037Z,47.01
2022-09-05T07:31:26.475Z,46.34
2022-09-05T07:34:49.311Z,44.36
2022-09-05T07:38:07.169Z,45.37
2022-09-05T07:41:23.536Z,43.99
2022-09-05T07:44:40.449Z,42.80
2022-09-05T07:48:00.559Z,41.81
2022-09-05T07:56:47.398Z,46.19
2022-09-05T07:56:49.749Z,47.98
2022-09-05T07:58:35.447Z,48.89
2022-09-05T08:01:48.589Z,49.19
2022-09-05T08:05:04.454Z,50.45
2022-09-05T08:08:19.473Z,52.59
2022-09-05T08:11:35.902Z,53.63
2022-09-05T08:14:53.720Z,56.00
2022-09-05T08:18:18.373Z,56.34
2022-09-05T08:21:41.981Z,58.77
2022-09-05T08:25:04.645Z,59.19
2022-09-05T08:28:25.307Z,59.88
2022-09-05T08:31:52.692Z,57.51
2022-09-05T08:35:12.205Z,58.20
2022-09-05T08:38:21.719Z,55.85
2022-09-05T08:41:50.403Z,55.67
2022-09-05T08:46:39.567Z,52.50
2022-09-05T08:49:37.826Z,54.82
2022-09-05T08:53:28.348Z,54.29
2022-09-05T08:56:50.980Z,54.73
2022-09-05T09:00:18.951Z,54.53
2022-09-05T09:03:40.470Z,55.67
2022-09-05T09:07:47.400Z,51.92
2022-09-05T09:10:57.371Z,52.42
2022-09-05T09:14:52.312Z,49.91
2022-09-05T09:18:15.629Z,50.84
2022-09-05T09:21:30.369Z,49.60
2022-09-05T09:25:08.258Z,48.83
2022-09-05T09:28:53.793Z,49.70
2022-09-05T09:32:09.557Z,49.79
2022-09-05T09:35:36.542Z,49.81
2022-09-05T09:39:37.448Z,50.56
2022-09-05T09:42:51.813Z,52.30
2022-09-05T09:46:18.858Z,51.62
2022-09-05T09:50:01.747Z,49.83
2022-09-05T09:53:37.429Z,49.35
2022-09-05T09:57:24.484Z,49.22
2022-09-05T10:00:51.398Z,48.33
2022-09-05T10:10:36.481Z,46.71
2022-09-05T10:10:53.554Z,48.64
2022-09-05T10:12:42.373Z,49.08
2022-09-05T10:16:47.614Z,49.92
2022-09-05T10:20:29.491Z,48.38
2022-09-05T10:24:16.107Z,47.28
2022-09-05T10:27:45.841Z,46.57
2022-09-05T10:35:06.907Z,45.47
2022-09-05T10:35:18.286Z,45.39
2022-09-05T10:38:38.511Z,49.01
2022-09-05T10:41:53.491Z,49.60
2022-09-05T10:45:12.606Z,47.22
2022-09-05T10:48:29.414Z,45.69
2022-09-05T10:51:52.055Z,46.41
2022-09-05T10:55:26.278Z,46.59
2022-09-05T11:01:10.323Z,44.01
2022-09-05T11:02:39.674Z,45.68
2022-09-05T11:05:59.634Z,44.85
2022-09-05T11:09:40.977Z,45.57
2022-09-05T11:13:10.734Z,46.64
2022-09-05T11:16:32.664Z,45.35
2022-09-05T11:19:46.547Z,47.37
2022-09-05T11:23:03.969Z,48.68
2022-09-05T11:26:34.750Z,46.13
2022-09-05T11:29:49.059Z,45.91
2022-09-05T11:39:52.306Z,46.27
2022-09-05T11:39:53.444Z,45.23
2022-09-05T11:41:15.824Z,46.74
2022-09-05T11:44:38.930Z,47.18
2022-09-05T11:48:34.132Z,47.96
2022-09-05T11:52:41.189Z,46.32
2022-09-05T11:56:29.121Z,46.56
2022-09-05T12:00:33.391Z,47.11
2022-09-05T12:04:23.957Z,45.55
2022-09-05T12:07:57.436Z,45.74
2022-09-05T12:11:24.935Z,46.35
2022-09-05T12:14:49.372Z,45.54
2022-09-05T12:18:21.638Z,46.43
2022-09-05T12:21:46.027Z,47.46
2022-09-05T12:27:36.828Z,46.48
2022-09-05T12:29:28.120Z,46.27
2022-09-05T12:34:06.442Z,46.11
2022-09-05T12:40:43.337Z,45.25
2022-09-05T12:41:32.746Z,45.15
2022-09-05T12:44:38.962Z,45.93
2022-09-05T12:47:16.892Z,45.16
2022-09-05T12:50:43.337Z,44.69
2022-09-05T12:53:58.999Z,44.77
2022-09-05T13:02:59.030Z,46.77
2022-09-05T13:03:01.533Z,45.39
2022-09-05T13:04:30.253Z,45.58
2022-09-05T13:07:48.879Z,42.77
2022-09-05T13:14:46.841Z,43.68
2022-09-05T13:14:58.511Z,44.73
2022-09-05T13:18:12.544Z,44.39
2022-09-05T13:21:27.094Z,43.41
2022-09-05T13:24:41.487Z,41.70
2022-09-05T13:27:57.892Z,43.92
2022-09-05T13:37:19.191Z,42.72
2022-09-05T13:37:58.605Z,40.02
2022-09-05T13:38:47.600Z,42.87
2022-09-05T13:41:59.378Z,43.53
2022-09-05T13:45:15.601Z,43.23
2022-09-05T13:52:31.238Z,43.90
2022-09-05T13:55:45.850Z,42.95
2022-09-05T13:59:03.433Z,40.68
2022-09-05T14:06:48.915Z,42.79
2022-09-05T14:10:50.925Z,43.29
2022-09-05T14:14:12.068Z,42.40
2022-09-05T14:17:54.573Z,45.14
2022-09-05T14:21:26.313Z,42.45
2022-09-05T14:24:40.981Z,43.39
2022-09-05T14:27:52.247Z,44.04
2022-09-05T14:33:35.515Z,44.43
2022-09-05T14:37:43.860Z,44.28
2022-09-05T14:38:53.622Z,44.13
2022-09-05T14:42:28.756Z,45.17
2022-09-05T14:46:10.347Z,46.50
2022-09-05T14:49:41.346Z,44.71
2022-09-05T14:57:28.623Z,47.03
2022-09-05T15:02:52.811Z,46.76
2022-09-05T15:07:25.713Z,47.60
2022-09-05T15:12:21.289Z,46.35
2022-09-05T15:14:10.066Z,48.46
2022-09-05T15:17:26.477Z,48.79
2022-09-05T15:20:40.340Z,49.40
2022-09-05T15:24:01.461Z,50.18
2022-09-05T15:27:19.035Z,50.61
2022-09-05T15:30:35.827Z,50.71
2022-09-05T15:33:45.148Z,50.03
2022-09-05T15:37:10.858Z,50.30
2022-09-05T15:40:27.806Z,50.47
2022-09-05T15:43:40.142Z,50.32
2022-09-05T15:46:57.177Z,51.51
2022-09-05T15:50:22.201Z,52.61
2022-09-05T15:53:37.157Z,53.81
2022-09-05T15:56:51.381Z,53.50
2022-09-05T16:00:05.164Z,53.16
2022-09-05T16:04:54.997Z,52.48
2022-09-05T16:10:31.738Z,52.74
2022-09-05T16:11:07.736Z,53.83
2022-09-05T16:14:21.501Z,53.53
2022-09-05T16:23:17.854Z,52.74
2022-09-05T16:23:27.193Z,53.02
2022-09-05T16:25:59.652Z,52.48
2022-09-05T16:29:23.875Z,52.78
2022-09-05T16:32:41.433Z,53.17
2022-09-05T16:36:10.889Z,53.14
2022-09-05T16:39:28.026Z,53.44
2022-09-05T16:42:46.656Z,53.59
2022-09-05T16:46:06.513Z,53.51
2022-09-05T16:49:41.925Z,53.62
2022-09-05T16:53:28.062Z,53.06
2022-09-05T16:56:43.957Z,54.27
2022-09-05T16:59:54.525Z,54.76
2022-09-05T17:03:28.946Z,55.51
2022-09-05T17:06:49.995Z,55.39
2022-09-05T17:10:09.078Z,56.25
2022-09-05T17:13:42.759Z,56.53
2022-09-05T17:16:56.451Z,57.23
2022-09-05T17:20:14.443Z,57.78
2022-09-05T17:28:46.025Z,58.08
2022-09-05T17:29:44.574Z,59.44
2022-09-05T17:35:17.074Z,60.63
2022-09-05T17:39:02.821Z,61.80
2022-09-05T17:42:32.755Z,62.68
2022-09-05T17:45:53.443Z,63.20
2022-09-05T17:49:19.435Z,64.23
2022-09-05T17:52:31.201Z,64.90
2022-09-05T17:56:14.472Z,65.57
2022-09-05T17:59:28.826Z,66.13
2022-09-05T18:02:56.267Z,67.19
2022-09-05T18:06:08.407Z,67.26
2022-09-05T18:09:58.801Z,67.68
2022-09-05T18:17:35.883Z,69.14
2022-09-05T18:20:33.227Z,69.83
2022-09-05T18:23:54.045Z,70.42
2022-09-05T18:27:43.846Z,69.89
2022-09-05T18:30:53.207Z,71.20
2022-09-05T18:34:46.579Z,72.12
2022-09-05T18:38:26.119Z,72.45
2022-09-05T18:41:55.220Z,72.82
2022-09-05T18:45:28.625Z,72.92
2022-09-05T18:49:39.294Z,72.78
2022-09-05T18:52:25.782Z,72.83
2022-09-05T18:56:13.751Z,73.24
2022-09-05T18:59:18.256Z,74.17
2022-09-05T19:02:51.328Z,73.45
2022-09-05T19:06:36.361Z,74.16
2022-09-05T19:10:34.041Z,74.38
2022-09-05T19:13:37.150Z,74.31
2022-09-05T19:16:48.563Z,74.28
2022-09-05T19:20:31.501Z,74.57
2022-09-05T19:23:50.507Z,74.31
2022-09-05T19:28:47.174Z,74.51
2022-09-05T19:36:50.443Z,74.73
2022-09-05T19:37:02.248Z,75.07
2022-09-05T19:37:46.380Z,75.50
2022-09-05T19:47:27.912Z,75.57
2022-09-05T19:47:38.729Z,75.64
2022-09-05T19:51:37.734Z,75.57
2022-09-05T19:54:52.596Z,76.25
2022-09-05T19:58:19.076Z,76.25
2022-09-05T20:01:28.070Z,75.62
2022-09-05T20:04:47.001Z,75.94
2022-09-05T20:08:02.251Z,76.17
2022-09-05T20:11:12.590Z,76.98
2022-09-05T20:14:29.168Z,77.38
2022-09-05T20:17:43.126Z,77.21
2022-09-05T20:20:57.208Z,77.63
2022-09-05T20:24:07.982Z,77.00
2022-09-05T20:27:19.155Z,76.18
2022-09-05T20:30:36.750Z,77.11
2022-09-05T20:33:51.722Z,77.55
2022-09-05T20:43:18.015Z,78.03
2022-09-05T20:43:18.586Z,77.32
2022-09-05T20:44:22.712Z,78.11
2022-09-05T20:54:07.173Z,78.86
2022-09-05T20:54:13.189Z,78.92
2022-09-05T20:54:43.491Z,78.72
2022-09-05T20:57:52.277Z,79.13
2022-09-05T21:01:21.599Z,78.67
2022-09-05T21:04:34.135Z,78.44
2022-09-05T21:07:51.249Z,78.40
2022-09-05T21:11:15.907Z,79.10
2022-09-05T21:14:28.492Z,78.20
2022-09-05T21:17:40.314Z,77.72
2022-09-05T21:20:57.407Z,77.71
2022-09-05T21:24:16.644Z,77.78
2022-09-05T21:27:27.261Z,78.77
2022-09-05T21:30:39.374Z,78.96
2022-09-05T21:33:49.586Z,79.42
2022-09-05T21:37:07.644Z,79.83
2022-09-05T21:40:17.532Z,79.51
2022-09-05T21:45:43.402Z,79.82
2022-09-05T21:47:40.905Z,80.05
2022-09-05T21:50:31.232Z,79.67
2022-09-05T21:57:37.456Z,79.06
2022-09-05T21:59:29.240Z,78.42
2022-09-05T22:00:51.837Z,79.70
2022-09-05T22:04:00.832Z,79.62
2022-09-05T22:07:14.480Z,80.35
2022-09-05T22:10:23.468Z,80.93
2022-09-05T22:13:58.951Z,81.27
2022-09-05T22:17:07.095Z,80.96
2022-09-05T22:20:20.729Z,81.33
2022-09-05T22:23:33.848Z,81.19
2022-09-05T22:26:57.373Z,81.60
2022-09-05T22:30:16.299Z,80.97
2022-09-05T22:33:26.870Z,81.56
2022-09-05T22:36:35.447Z,82.18
2022-09-05T22:39:45.597Z,82.19
2022-09-05T22:42:58.259Z,82.32
2022-09-05T22:46:08.492Z,81.66
2022-09-05T22:49:16.968Z,80.30
2022-09-05T22:52:25.499Z,79.75
2022-09-05T22:55:35.546Z,80.73
2022-09-05T22:58:46.505Z,80.93
2022-09-05T23:01:54.880Z,81.24
2022-09-05T23:05:03.389Z,81.42
2022-09-05T23:08:12.318Z,81.36
2022-09-05T23:11:22.138Z,82.06
2022-09-05T23:14:30.935Z,82.36
2022-09-05T23:17:39.128Z,82.73
2022-09-05T23:20:47.302Z,82.75
2022-09-05T23:23:55.907Z,82.89
2022-09-05T23:27:05.532Z,82.90
2022-09-05T23:30:15.379Z,82.57
2022-09-05T23:33:24.874Z,82.79
2022-09-05T23:36:35.916Z,83.02
2022-09-05T23:39:44.547Z,82.99
2022-09-05T23:42:56.044Z,82.67
2022-09-05T23:46:05.696Z,82.41
2022-09-05T23:49:14.187Z,82.89
2022-09-05T23:52:22.571Z,82.66
2022-09-05T23:55:31.192Z,82.91
2022-09-05T23:58:41.382Z,82.42
